createdAt,value
2023-04-14T00:02:07.883Z,5.27
2023-04-14T00:04:35.817Z,5.30
2023-04-14T00:07:03.493Z,5.34
2023-04-14T00:09:31.081Z,5.32
2023-04-14T00:11:58.587Z,5.42
2023-04-14T00:14:27.478Z,5.46
2023-04-14T00:16:55.090Z,5.45
2023-04-14T00:19:22.688Z,5.40
2023-04-14T00:21:50.245Z,5.39
2023-04-14T00:24:17.814Z,5.43
2023-04-14T00:26:45.521Z,5.41
2023-04-14T00:29:13.136Z,5.40
2023-04-14T00:31:43.800Z,5.30
2023-04-14T00:34:11.350Z,5.32
2023-04-14T00:36:38.868Z,5.23
2023-04-14T00:39:06.412Z,5.18
2023-04-14T00:41:34.763Z,5.21
2023-04-14T00:44:02.935Z,5.23
2023-04-14T00:46:31.230Z,5.35
2023-04-14T00:49:00.566Z,5.24
2023-04-14T00:51:28.845Z,5.03
2023-04-14T00:53:57.606Z,5.07
2023-04-14T00:56:26.845Z,5.13
2023-04-14T00:58:54.629Z,5.15
2023-04-14T01:01:22.480Z,5.03
2023-04-14T01:03:50.288Z,5.00
2023-04-14T01:06:19.321Z,5.05
2023-04-14T01:08:47.028Z,5.06
2023-04-14T01:11:18.254Z,5.12
2023-04-14T01:13:54.572Z,5.15
2023-04-14T01:16:29.458Z,5.12
2023-04-14T01:19:07.590Z,4.99
2023-04-14T01:21:42.671Z,4.98
2023-04-14T01:24:38.621Z,5.02
2023-04-14T01:27:33.452Z,5.03
2023-04-14T01:30:10.914Z,5.03
2023-04-14T01:32:45.563Z,5.04
2023-04-14T01:35:18.783Z,4.87
2023-04-14T01:37:49.567Z,4.75
2023-04-14T01:40:20.409Z,4.70
2023-04-14T01:42:54.754Z,4.65
2023-04-14T01:45:26.212Z,4.62
2023-04-14T01:47:56.751Z,4.64
2023-04-14T01:50:28.562Z,4.71
2023-04-14T01:52:56.658Z,4.62
2023-04-14T01:55:29.095Z,4.59
2023-04-14T01:57:58.237Z,4.53
2023-04-14T02:00:27.068Z,4.49
2023-04-14T02:02:57.325Z,4.54
2023-04-14T02:05:27.126Z,4.57
2023-04-14T02:07:56.504Z,4.52
2023-04-14T02:10:25.468Z,4.45
2023-04-14T02:12:57.804Z,4.48
2023-04-14T02:15:28.577Z,4.41
2023-04-14T02:17:58.903Z,4.40
2023-04-14T02:20:29.346Z,4.37
2023-04-14T02:22:57.011Z,4.32
2023-04-14T02:25:27.144Z,4.30
2023-04-14T02:27:57.334Z,4.26
2023-04-14T02:30:30.401Z,4.19
2023-04-14T02:33:05.477Z,4.19
2023-04-14T02:35:39.809Z,4.19
2023-04-14T02:38:11.293Z,4.14
2023-04-14T02:40:43.271Z,4.09
2023-04-14T02:43:18.624Z,4.07
2023-04-14T02:45:48.873Z,4.10
2023-04-14T02:48:20.117Z,4.09
2023-04-14T02:50:50.926Z,4.12
2023-04-14T02:53:23.278Z,4.16
2023-04-14T02:55:58.116Z,4.15
2023-04-14T02:58:29.088Z,4.16
2023-04-14T03:00:58.433Z,4.17
2023-04-14T03:03:29.215Z,4.11
2023-04-14T03:05:57.391Z,4.11
2023-04-14T03:08:26.940Z,4.16
2023-04-14T03:10:56.017Z,4.20
2023-04-14T03:13:28.392Z,4.18
2023-04-14T03:15:57.340Z,4.05
2023-04-14T03:18:28.370Z,3.98
2023-04-14T03:21:00.476Z,3.92
2023-04-14T03:23:28.925Z,3.90
2023-04-14T03:26:03.228Z,3.94
2023-04-14T03:28:35.558Z,3.85
2023-04-14T03:31:06.979Z,3.83
2023-04-14T03:33:46.516Z,3.75
2023-04-14T03:36:17.374Z,3.75
2023-04-14T03:38:49.311Z,3.73
2023-04-14T03:41:20.531Z,3.69
2023-04-14T03:43:54.353Z,3.67
2023-04-14T03:46:23.888Z,3.78
2023-04-14T03:48:55.571Z,3.78
2023-04-14T03:51:29.357Z,3.78
2023-04-14T03:54:00.709Z,3.87
2023-04-14T03:56:32.054Z,3.77
2023-04-14T03:59:02.328Z,3.70
2023-04-14T04:01:33.916Z,3.69
2023-04-14T04:04:06.502Z,3.85
2023-04-14T04:06:34.256Z,3.85
2023-04-14T04:09:03.449Z,3.82
2023-04-14T04:11:34.882Z,3.87
2023-04-14T04:14:05.346Z,3.73
2023-04-14T04:16:36.256Z,3.67
2023-04-14T04:19:08.187Z,3.74
2023-04-14T04:21:40.244Z,3.66
2023-04-14T04:24:09.236Z,3.67
2023-04-14T04:26:37.968Z,3.76
2023-04-14T04:29:06.176Z,3.76
2023-04-14T04:31:35.268Z,3.68
2023-04-14T04:34:03.986Z,3.73
2023-04-14T04:36:38.815Z,3.77
2023-04-14T04:39:06.576Z,3.69
2023-04-14T04:41:38.653Z,3.78
2023-04-14T04:44:06.942Z,3.74
2023-04-14T04:46:52.986Z,3.69
2023-04-14T04:49:24.027Z,3.65
2023-04-14T04:51:54.697Z,3.75
2023-04-14T04:54:22.281Z,3.79
2023-04-14T04:56:49.826Z,3.75
2023-04-14T04:59:17.739Z,3.72
2023-04-14T05:01:45.547Z,3.77
2023-04-14T05:04:13.148Z,3.80
2023-04-14T05:06:40.857Z,3.66
2023-04-14T05:09:10.115Z,3.63
2023-04-14T05:11:37.689Z,3.57
2023-04-14T05:14:05.321Z,3.66
2023-04-14T05:16:33.406Z,3.71
2023-04-14T05:19:01.144Z,3.85
2023-04-14T05:21:28.946Z,3.89
2023-04-14T05:23:56.470Z,3.97
2023-04-14T05:28:56.058Z,3.92
2023-04-14T05:31:23.620Z,3.97
2023-04-14T05:33:51.250Z,4.12
2023-04-14T05:36:18.825Z,4.19
2023-04-14T05:38:46.520Z,4.17
2023-04-14T05:41:14.023Z,4.19
2023-04-14T05:43:42.882Z,4.11
2023-04-14T05:46:10.450Z,4.03
2023-04-14T05:48:38.126Z,4.08
2023-04-14T05:51:05.648Z,4.19
2023-04-14T05:53:33.313Z,4.28
2023-04-14T05:56:01.271Z,4.39
2023-04-14T05:58:28.817Z,4.53
2023-04-14T06:00:57.715Z,4.67
2023-04-14T06:03:25.390Z,4.82
2023-04-14T06:05:53.203Z,4.93
2023-04-14T06:08:21.351Z,4.95
2023-04-14T06:10:48.879Z,4.87
2023-04-14T06:13:16.857Z,4.83
2023-04-14T06:15:44.398Z,4.78
2023-04-14T06:18:14.660Z,4.85
2023-04-14T06:20:42.225Z,4.98
2023-04-14T06:23:09.786Z,5.17
2023-04-14T06:25:37.345Z,5.32
2023-04-14T06:28:04.931Z,5.42
2023-04-14T06:30:33.114Z,5.47
2023-04-14T06:33:04.076Z,5.45
2023-04-14T06:35:34.862Z,5.39
2023-04-14T06:38:02.621Z,5.34
2023-04-14T06:40:30.443Z,5.41
2023-04-14T06:42:58.091Z,5.51
2023-04-14T06:45:26.094Z,5.68
2023-04-14T06:47:53.745Z,5.84
2023-04-14T06:50:21.321Z,6.00
2023-04-14T06:52:50.150Z,6.16
2023-04-14T06:55:17.690Z,6.29
2023-04-14T06:57:45.335Z,6.40
2023-04-14T07:00:14.113Z,6.56
2023-04-14T07:02:41.766Z,6.69
2023-04-14T07:05:09.817Z,6.78
2023-04-14T07:07:39.905Z,6.90
2023-04-14T07:10:09.875Z,7.04
2023-04-14T07:12:37.396Z,7.17
2023-04-14T07:15:05.925Z,7.29
2023-04-14T07:17:36.304Z,7.38
2023-04-14T07:20:05.190Z,7.54
2023-04-14T07:22:33.239Z,7.68
2023-04-14T07:25:00.835Z,7.84
2023-04-14T07:27:31.749Z,7.97
2023-04-14T07:29:59.426Z,8.07
2023-04-14T07:32:27.077Z,8.15
2023-04-14T07:34:54.653Z,8.26
2023-04-14T07:37:22.307Z,8.39
2023-04-14T07:39:49.903Z,8.46
2023-04-14T07:42:17.480Z,8.54
2023-04-14T07:44:46.376Z,8.67
2023-04-14T07:47:13.873Z,8.73
2023-04-14T07:49:41.492Z,8.85
2023-04-14T07:52:09.061Z,8.94
2023-04-14T07:54:36.564Z,9.01
2023-04-14T07:57:04.186Z,9.09
2023-04-14T07:59:32.324Z,9.13
2023-04-14T08:02:01.440Z,9.19
2023-04-14T08:04:29.014Z,9.20
2023-04-14T08:06:56.793Z,9.25
2023-04-14T08:09:24.405Z,9.25
2023-04-14T08:11:51.966Z,9.25
2023-04-14T08:14:19.863Z,9.31
2023-04-14T08:16:47.636Z,9.28
2023-04-14T08:19:16.628Z,9.33
2023-04-14T08:21:44.173Z,9.48
2023-04-14T08:24:11.721Z,9.61
2023-04-14T08:26:39.247Z,9.73
2023-04-14T08:29:06.890Z,9.85
2023-04-14T08:31:34.563Z,9.96
2023-04-14T08:34:02.097Z,10.01
2023-04-14T08:36:31.293Z,10.13
2023-04-14T08:39:01.578Z,10.22
2023-04-14T08:41:30.819Z,10.29
2023-04-14T08:43:58.367Z,10.40
2023-04-14T08:46:28.123Z,10.46
2023-04-14T08:49:03.836Z,10.54
2023-04-14T08:51:36.527Z,10.52
2023-04-14T08:54:09.385Z,10.63
2023-04-14T08:56:39.553Z,10.69
2023-04-14T08:59:07.780Z,10.79
2023-04-14T09:01:36.502Z,10.81
2023-04-14T09:04:05.132Z,10.90
2023-04-14T09:06:34.688Z,10.92
2023-04-14T09:09:03.870Z,11.01
2023-04-14T09:11:31.670Z,11.06
2023-04-14T09:14:00.543Z,11.11
2023-04-14T09:16:29.509Z,11.10
2023-04-14T09:19:06.389Z,11.11
2023-04-14T09:21:52.256Z,11.18
2023-04-14T09:24:29.422Z,11.30
2023-04-14T09:26:59.830Z,11.52
2023-04-14T09:29:27.549Z,11.64
2023-04-14T09:31:55.168Z,11.57
2023-04-14T09:34:22.849Z,11.60
2023-04-14T09:37:05.525Z,11.54
2023-04-14T09:39:33.739Z,11.68
2023-04-14T09:42:01.626Z,11.73
2023-04-14T09:44:29.681Z,11.81
2023-04-14T09:47:01.175Z,11.91
2023-04-14T09:49:30.115Z,12.02
2023-04-14T09:52:06.442Z,12.11
2023-04-14T09:54:33.999Z,12.11
2023-04-14T09:57:02.321Z,12.21
2023-04-14T09:59:34.405Z,12.34
2023-04-14T10:02:05.937Z,12.27
2023-04-14T10:04:33.700Z,12.35
2023-04-14T10:07:01.893Z,12.46
2023-04-14T10:09:31.208Z,12.41
2023-04-14T10:12:09.942Z,12.45
2023-04-14T10:14:38.739Z,12.57
2023-04-14T10:17:06.609Z,12.42
2023-04-14T10:19:36.423Z,12.60
2023-04-14T10:22:04.707Z,12.68
2023-04-14T10:24:33.916Z,12.42
2023-04-14T10:27:03.754Z,12.33
2023-04-14T10:29:31.694Z,12.45
2023-04-14T10:32:05.258Z,12.61
2023-04-14T10:34:34.437Z,12.75
2023-04-14T10:37:13.972Z,12.86
2023-04-14T10:39:43.370Z,12.89
2023-04-14T10:42:11.117Z,12.95
2023-04-14T10:44:39.203Z,13.01
2023-04-14T10:47:08.440Z,13.13
2023-04-14T10:49:38.214Z,13.26
2023-04-14T10:52:08.056Z,12.83
2023-04-14T10:54:52.526Z,12.94
2023-04-14T10:57:22.980Z,13.05
2023-04-14T10:59:55.310Z,12.99
2023-04-14T11:02:24.727Z,12.84
2023-04-14T11:05:04.726Z,12.57
2023-04-14T11:07:38.933Z,12.70
2023-04-14T11:10:27.257Z,12.84
2023-04-14T11:13:02.130Z,12.87
2023-04-14T11:15:52.864Z,12.77
2023-04-14T11:18:22.248Z,12.72
2023-04-14T11:20:53.033Z,13.06
2023-04-14T11:23:27.981Z,12.98
2023-04-14T11:25:57.965Z,13.15
2023-04-14T11:28:30.057Z,13.02
2023-04-14T11:30:59.187Z,12.99
2023-04-14T11:33:29.212Z,12.88
2023-04-14T11:35:56.961Z,13.16
2023-04-14T11:38:25.089Z,13.26
2023-04-14T11:40:53.145Z,13.26
2023-04-14T11:43:23.134Z,13.37
2023-04-14T11:45:52.823Z,13.31
2023-04-14T11:48:21.701Z,13.06
2023-04-14T11:50:49.501Z,13.19
2023-04-14T11:53:18.484Z,13.25
2023-04-14T11:55:47.923Z,13.14
2023-04-14T11:58:17.124Z,13.19
2023-04-14T12:00:46.079Z,13.30
2023-04-14T12:03:13.838Z,13.32
2023-04-14T12:05:41.911Z,13.47
2023-04-14T12:08:12.168Z,13.48
2023-04-14T12:10:41.902Z,13.43
2023-04-14T12:13:11.255Z,13.51
2023-04-14T12:15:41.431Z,13.59
2023-04-14T12:18:13.383Z,13.27
2023-04-14T12:20:45.975Z,13.26
2023-04-14T12:23:13.860Z,13.41
2023-04-14T12:25:41.477Z,13.34
2023-04-14T12:28:09.253Z,13.50
2023-04-14T12:30:37.957Z,13.43
2023-04-14T12:33:12.422Z,13.34
2023-04-14T12:35:41.247Z,13.41
2023-04-14T12:38:13.382Z,13.28
2023-04-14T12:40:43.526Z,13.14
2023-04-14T12:43:11.418Z,13.14
2023-04-14T12:45:43.153Z,13.05
2023-04-14T12:48:13.379Z,13.05
2023-04-14T12:50:41.379Z,12.95
2023-04-14T12:53:24.847Z,13.03
2023-04-14T12:56:06.803Z,12.87
2023-04-14T12:58:34.386Z,12.90
2023-04-14T13:01:02.217Z,12.70
2023-04-14T13:03:42.352Z,12.77
2023-04-14T13:06:11.812Z,12.97
2023-04-14T13:08:43.554Z,13.02
2023-04-14T13:11:11.682Z,13.15
2023-04-14T13:13:39.320Z,13.32
2023-04-14T13:16:13.741Z,13.39
2023-04-14T13:18:45.216Z,13.30
2023-04-14T13:21:12.995Z,13.43
2023-04-14T13:23:40.968Z,13.60
2023-04-14T13:26:08.579Z,13.59
2023-04-14T13:28:36.458Z,13.39
2023-04-14T13:31:04.176Z,13.26
2023-04-14T13:33:33.119Z,13.31
2023-04-14T13:36:02.711Z,13.34
2023-04-14T13:38:30.745Z,13.37
2023-04-14T13:40:58.334Z,13.50
2023-04-14T13:43:26.227Z,13.60
2023-04-14T13:45:57.771Z,13.69
2023-04-14T13:48:25.826Z,13.71
2023-04-14T13:50:54.282Z,13.90
2023-04-14T13:53:23.233Z,13.90
2023-04-14T13:55:51.209Z,13.75
2023-04-14T13:58:18.831Z,13.76
2023-04-14T14:00:46.445Z,13.68
2023-04-14T14:03:14.176Z,13.76
2023-04-14T14:05:41.923Z,13.91
2023-04-14T14:08:09.472Z,13.84
2023-04-14T14:10:38.374Z,13.69
2023-04-14T14:13:06.549Z,13.61
2023-04-14T14:15:34.418Z,13.56
2023-04-14T14:18:03.083Z,13.64
2023-04-14T14:20:30.718Z,13.99
2023-04-14T14:22:58.237Z,13.94
2023-04-14T14:25:25.810Z,13.83
2023-04-14T14:27:54.872Z,13.76
2023-04-14T14:30:22.417Z,13.50
2023-04-14T14:32:50.019Z,13.35
2023-04-14T14:35:17.784Z,13.30
2023-04-14T14:37:45.667Z,13.49
2023-04-14T14:40:13.922Z,13.69
2023-04-14T14:42:41.446Z,13.91
2023-04-14T14:45:11.476Z,13.81
2023-04-14T14:47:39.815Z,13.81
2023-04-14T14:50:08.997Z,13.88
2023-04-14T14:52:36.564Z,13.57
2023-04-14T14:55:05.018Z,13.51
2023-04-14T14:57:32.572Z,13.63
2023-04-14T15:00:00.169Z,13.64
2023-04-14T15:02:29.249Z,13.08
2023-04-14T15:04:57.036Z,12.80
2023-04-14T15:07:25.736Z,12.75
2023-04-14T15:09:53.847Z,12.86
2023-04-14T15:12:21.405Z,13.05
2023-04-14T15:14:49.106Z,12.92
2023-04-14T15:17:17.029Z,13.44
2023-04-14T15:19:46.172Z,13.30
2023-04-14T15:22:13.708Z,13.43
2023-04-14T15:24:41.213Z,13.28
2023-04-14T15:27:08.737Z,12.93
2023-04-14T15:29:36.299Z,13.26
2023-04-14T15:32:03.882Z,12.94
2023-04-14T15:34:31.464Z,12.72
2023-04-14T15:37:00.523Z,12.76
2023-04-14T15:39:28.698Z,12.68
2023-04-14T15:41:56.980Z,12.72
2023-04-14T15:44:26.042Z,12.76
2023-04-14T15:46:54.271Z,12.71
2023-04-14T15:49:21.818Z,12.68
2023-04-14T15:51:50.214Z,12.47
2023-04-14T15:54:20.104Z,12.31
2023-04-14T15:56:47.766Z,12.44
2023-04-14T15:59:15.589Z,12.55
2023-04-14T16:01:43.651Z,12.61
2023-04-14T16:04:11.362Z,12.75
2023-04-14T16:06:39.074Z,12.55
2023-04-14T16:09:06.879Z,12.59
2023-04-14T16:11:36.111Z,12.51
2023-04-14T16:14:03.784Z,12.58
2023-04-14T16:16:32.562Z,12.66
2023-04-14T16:19:00.599Z,12.39
2023-04-14T16:21:28.353Z,12.42
2023-04-14T16:23:55.958Z,12.45
2023-04-14T16:26:25.074Z,12.23
2023-04-14T16:28:53.971Z,12.23
2023-04-14T16:31:21.527Z,12.19
2023-04-14T16:33:49.097Z,12.04
2023-04-14T16:36:16.672Z,11.98
2023-04-14T16:38:44.192Z,11.83
2023-04-14T16:41:11.825Z,11.63
2023-04-14T16:43:39.325Z,11.73
2023-04-14T16:46:08.499Z,11.76
2023-04-14T16:48:36.924Z,11.72
2023-04-14T16:51:05.446Z,11.64
2023-04-14T16:53:32.997Z,11.63
2023-04-14T16:56:04.169Z,11.67
2023-04-14T16:58:31.723Z,11.42
2023-04-14T17:00:59.284Z,11.39
2023-04-14T17:03:28.396Z,11.27
2023-04-14T17:05:56.212Z,11.35
2023-04-14T17:08:23.801Z,11.31
2023-04-14T17:10:51.499Z,11.23
2023-04-14T17:13:19.351Z,11.09
2023-04-14T17:15:53.205Z,11.11
2023-04-14T17:18:27.885Z,11.05
2023-04-14T17:20:55.428Z,11.03
2023-04-14T17:23:22.967Z,11.26
2023-04-14T17:25:52.954Z,11.42
2023-04-14T17:28:22.645Z,11.41
2023-04-14T17:30:50.804Z,11.32
2023-04-14T17:33:19.770Z,11.25
2023-04-14T17:35:48.838Z,11.10
2023-04-14T17:38:16.379Z,10.96
2023-04-14T17:40:43.941Z,10.73
2023-04-14T17:43:11.436Z,10.69
2023-04-14T17:45:42.201Z,10.67
2023-04-14T17:48:10.237Z,10.56
2023-04-14T17:50:37.867Z,10.54
2023-04-14T17:53:07.005Z,10.57
2023-04-14T17:55:34.546Z,10.40
2023-04-14T17:58:02.160Z,10.39
2023-04-14T18:00:30.121Z,10.27
2023-04-14T18:02:58.092Z,10.27
2023-04-14T18:05:25.601Z,10.11
2023-04-14T18:07:54.137Z,10.13
2023-04-14T18:10:23.068Z,10.10
2023-04-14T18:12:50.644Z,10.06
2023-04-14T18:15:19.131Z,9.93
2023-04-14T18:17:46.999Z,9.92
2023-04-14T18:20:15.830Z,9.79
2023-04-14T18:22:43.537Z,9.74
2023-04-14T18:25:11.110Z,9.64
2023-04-14T18:30:11.135Z,9.63
2023-04-14T18:32:38.651Z,9.59
2023-04-14T18:35:07.063Z,9.56
2023-04-14T18:37:34.860Z,9.59
2023-04-14T18:40:02.423Z,9.42
2023-04-14T18:42:31.312Z,9.48
2023-04-14T18:45:00.207Z,9.45
2023-04-14T18:47:28.518Z,9.39
2023-04-14T18:49:56.100Z,9.35
2023-04-14T18:52:23.612Z,9.34
2023-04-14T18:54:51.124Z,9.31
2023-04-14T18:57:19.054Z,9.28
2023-04-14T18:59:46.559Z,9.27
2023-04-14T19:02:15.777Z,9.24
2023-04-14T19:04:43.596Z,9.24
2023-04-14T19:07:11.329Z,9.24
2023-04-14T19:09:38.842Z,9.27
2023-04-14T19:12:09.347Z,9.33
2023-04-14T19:14:44.760Z,9.33
2023-04-14T19:17:12.409Z,9.35
2023-04-14T19:19:41.337Z,9.34
2023-04-14T19:22:09.403Z,9.29
2023-04-14T19:24:37.127Z,9.26
2023-04-14T19:27:08.514Z,9.26
2023-04-14T19:29:37.106Z,9.32
2023-04-14T19:32:05.244Z,9.35
2023-04-14T19:34:32.861Z,9.35
2023-04-14T19:37:03.204Z,9.31
2023-04-14T19:39:30.792Z,9.24
2023-04-14T19:41:58.692Z,9.21
2023-04-14T19:44:27.055Z,9.19
2023-04-14T19:46:54.668Z,9.12
2023-04-14T19:49:22.675Z,9.06
2023-04-14T19:51:50.835Z,9.08
2023-04-14T19:54:20.236Z,9.04
2023-04-14T19:56:47.758Z,9.00
2023-04-14T19:59:15.387Z,9.02
2023-04-14T20:01:44.980Z,8.98
2023-04-14T20:04:13.773Z,8.90
2023-04-14T20:06:42.745Z,8.79
2023-04-14T20:09:10.585Z,8.78
2023-04-14T20:11:39.447Z,8.72
2023-04-14T20:14:07.016Z,8.72
2023-04-14T20:16:34.770Z,8.79
2023-04-14T20:19:02.706Z,8.76
2023-04-14T20:21:30.597Z,8.84
2023-04-14T20:23:59.245Z,8.82
2023-04-14T20:26:27.375Z,8.75
2023-04-14T20:28:56.280Z,8.79
2023-04-14T20:31:24.244Z,8.78
2023-04-14T20:33:51.945Z,8.79
2023-04-14T20:36:20.289Z,8.77
2023-04-14T20:38:48.185Z,8.78
2023-04-14T20:41:15.673Z,8.81
2023-04-14T20:43:43.476Z,8.76
2023-04-14T20:46:12.452Z,8.78
2023-04-14T20:48:40.048Z,8.79
2023-04-14T20:51:07.624Z,8.74
2023-04-14T20:53:35.873Z,8.82
2023-04-14T20:56:04.232Z,8.83
2023-04-14T20:58:31.805Z,8.75
2023-04-14T21:00:59.441Z,8.75
2023-04-14T21:03:28.862Z,8.75
2023-04-14T21:05:56.467Z,8.77
2023-04-14T21:08:23.973Z,8.73
2023-04-14T21:11:15.738Z,8.67
2023-04-14T21:15:29.551Z,8.64
2023-04-14T21:16:28.219Z,8.68
2023-04-14T21:18:57.375Z,8.75
2023-04-14T21:21:24.946Z,8.75
2023-04-14T21:23:52.480Z,8.74
2023-04-14T21:26:20.074Z,8.78
2023-04-14T21:28:47.807Z,8.74
2023-04-14T21:31:15.703Z,8.73
2023-04-14T21:33:43.285Z,8.82
2023-04-14T21:36:12.264Z,8.75
2023-04-14T21:38:40.181Z,8.64
2023-04-14T21:41:08.747Z,8.67
2023-04-14T21:43:36.677Z,8.63
2023-04-14T21:46:05.109Z,8.64
2023-04-14T21:48:32.794Z,8.59
2023-04-14T21:51:00.603Z,8.60
2023-04-14T21:53:29.481Z,8.62
2023-04-14T21:56:09.398Z,8.52
2023-04-14T21:58:38.341Z,8.55
2023-04-14T22:01:06.991Z,8.50
2023-04-14T22:03:37.135Z,8.46
2023-04-14T22:06:05.557Z,8.50
2023-04-14T22:08:34.774Z,8.48
2023-04-14T22:11:02.377Z,8.52
2023-04-14T22:13:29.945Z,8.48
2023-04-14T22:15:58.039Z,8.46
2023-04-14T22:18:25.573Z,8.49
2023-04-14T22:20:53.129Z,8.46
2023-04-14T22:23:20.858Z,8.56
2023-04-14T22:25:50.267Z,8.48
2023-04-14T22:28:17.819Z,8.51
2023-04-14T22:30:45.385Z,8.53
2023-04-14T22:33:12.991Z,8.54
2023-04-14T22:35:40.557Z,8.55
2023-04-14T22:38:08.134Z,8.46
2023-04-14T22:40:35.924Z,8.41
2023-04-14T22:43:08.577Z,8.38
2023-04-14T22:45:37.066Z,8.31
2023-04-14T22:48:04.947Z,8.24
2023-04-14T22:50:32.638Z,8.28
2023-04-14T22:53:00.753Z,8.24
2023-04-14T22:55:28.422Z,8.21
2023-04-14T22:57:56.442Z,8.12
2023-04-14T23:00:25.877Z,8.19
2023-04-14T23:02:53.541Z,8.21
2023-04-14T23:05:21.146Z,8.24
2023-04-14T23:07:49.456Z,8.13
2023-04-14T23:10:16.961Z,8.18
2023-04-14T23:12:44.497Z,8.08
2023-04-14T23:15:12.247Z,8.06
2023-04-14T23:17:41.144Z,7.99
2023-04-14T23:20:09.824Z,8.06
2023-04-14T23:22:37.496Z,7.95
2023-04-14T23:25:06.058Z,7.98
2023-04-14T23:27:33.572Z,7.94
2023-04-14T23:30:01.218Z,7.91
2023-04-14T23:32:28.778Z,7.85
2023-04-14T23:34:57.678Z,7.99
2023-04-14T23:37:25.259Z,7.98
2023-04-14T23:39:52.792Z,8.02
2023-04-14T23:42:20.529Z,7.95
2023-04-14T23:44:48.021Z,7.99
2023-04-14T23:47:15.688Z,7.93
2023-04-14T23:49:43.299Z,7.91
2023-04-14T23:52:12.215Z,7.95
2023-04-14T23:54:39.714Z,7.95
2023-04-14T23:57:07.536Z,7.96
2023-04-14T23:59:35.127Z,7.96
